Quenames — WTU9038 — position and weather

sailwx.info

Track history (hours):
 
Tides and Currents Weather Stations Pressure Air Temp Water Temp Dewpoint Dewpoint Depression Visibility Wind Speed Wind Dir Waves Ship Positions

Quenames

Owner: BOSTON MARINE TRANSPORT INC, EAST BOSTON, MA. More information available from US FCC via Universal Licensing System and Coast Guard Vessel Documentation Center.

Last reported at 2016-May-25 04:34 UTC. Time now 2016-May-25 07:14 UTC.
Position N 41°38' W 071°18'.

Length 23 m; draft 3 m.

Type: Tug. MMSI: 367022790.

Date/timePositionNaut miles runAvg speedWind from/ knotsBaromVisibWave heightAir tempDewpointWater temp
2016-May-25 04:34N 41°38' W 071°18'8 7.6
2016-May-25 03:33N 41°45' W 071°22'3 1.8
2016-May-25 02:06N 41°48' W 071°23'0 0.0
2016-May-25 01:29N 41°48' W 071°23'0 0.0
2016-May-24 23:29N 41°48' W 071°23'0 0.0
2016-May-24 22:30N 41°48' W 071°23'0 0.0
2016-May-24 21:31N 41°48' W 071°23'0 0.0
2016-May-24 20:32N 41°48' W 071°23'0 0.0
2016-May-24 19:33N 41°48' W 071°23'0 0.0
2016-May-24 18:33N 41°48' W 071°23'0 0.0
2016-May-24 17:28N 41°48' W 071°23'0 0.0
2016-May-24 16:27N 41°48' W 071°23'2 2.7
2016-May-24 15:33N 41°45' W 071°23'6 6.3
2016-May-24 14:33N 41°40' W 071°19'7 6.8
2016-May-24 13:29N 41°33' W 071°20'3 3.0
2016-May-24 12:33N 41°30' W 071°21'40 5.7
2016-May-24 05:33N 41°14' W 072°09'6 6.2
2016-May-24 04:32N 41°11' W 072°17'5 5.2
2016-May-24 03:33N 41°09' W 072°23'5 4.8
2016-May-24 02:34N 41°07' W 072°29'6 5.3
2016-May-24 01:31N 41°05' W 072°35'64 6.3
2016-May-23 15:19N 40°46' W 073°57'4 5.2
2016-May-23 14:33N 40°42' W 073°59'4 3.7
2016-May-23 13:33N 40°40' W 074°03'1 1.5
2016-May-23 12:34N 40°39' W 074°04'4 3.9
2016-May-23 11:33N 40°39' W 074°09'0 0.0
2016-May-22 19:33N 40°39' W 074°09'2 1.9
2016-May-22 18:33N 40°39' W 074°07'0 0.0
2016-May-22 17:33N 40°39' W 074°07'0 0.0
2016-May-22 16:33N 40°39' W 074°07'0 0.0
2016-May-22 15:33N 40°39' W 074°07'0 0.0
2016-May-22 14:33N 40°39' W 074°07'0 0.0
2016-May-22 13:33N 40°39' W 074°07'0 0.0
2016-May-22 12:33N 40°39' W 074°07'0 0.0
2016-May-22 11:33N 40°39' W 074°07'0 0.0
2016-May-22 08:33N 40°39' W 074°07'0 0.0
2016-May-22 07:33N 40°39' W 074°07'1 0.7
2016-May-22 06:33N 40°39' W 074°07'3 3.0
2016-May-22 05:34N 40°41' W 074°09'0 0.0
2016-May-22 04:33N 40°41' W 074°09'0 0.0
2016-May-22 03:33N 40°41' W 074°09'0 0.0
2016-May-22 02:34N 40°41' W 074°09'3 2.7
2016-May-22 01:33N 40°39' W 074°11'2 0.2
2016-May-21 15:09N 40°37' W 074°12'4 6.0
2016-May-21 14:33N 40°39' W 074°08'6 6.2
2016-May-21 13:33N 40°41' W 074°01'6 5.9
2016-May-21 12:30N 40°46' W 073°57'72 6.6
2016-May-21 01:32N 41°08' W 072°25'10 9.9
2016-May-21 00:33N 41°12' W 072°14'4 0.1
2016-May-19 07:30N 41°14' W 072°08'8 8.5
2016-May-19 06:33N 41°11' W 072°18'9 8.9
2016-May-19 05:33N 41°07' W 072°29'8 8.0
2016-May-19 04:30N 41°05' W 072°40'7 7.1
2016-May-19 03:33N 41°03' W 072°48'54 5.9
2016-May-18 18:25N 40°46' W 073°56'3 3.3
2016-May-18 17:33N 40°44' W 073°58'3 2.6
2016-May-18 16:33N 40°42' W 074°00'3 2.8
2016-May-18 15:34N 40°40' W 074°03'3 3.2
2016-May-18 14:33N 40°39' W 074°07'0 0.3
2016-May-18 13:32N 40°39' W 074°07'0 0.0
2016-May-18 12:33N 40°39' W 074°07'0 0.0
2016-May-18 11:31N 40°39' W 074°07'0 0.0
2016-May-18 10:33N 40°39' W 074°07'0 0.0
2016-May-18 09:34N 40°39' W 074°07'0 0.0
2016-May-18 08:33N 40°39' W 074°07'0 0.0
2016-May-18 07:33N 40°39' W 074°07'0 0.0
2016-May-18 06:33N 40°39' W 074°07'0 0.0
2016-May-18 05:33N 40°39' W 074°07'0 0.0
2016-May-18 04:26N 40°39' W 074°07'0 0.0
2016-May-18 03:26N 40°39' W 074°07'0 0.0
2016-May-18 02:33N 40°39' W 074°07'0 0.0
2016-May-18 01:28N 40°39' W 074°07'0 0.0
2016-May-18 00:10N 40°39' W 074°07'0 0.1
2016-May-17 22:33N 40°39' W 074°07'1 0.8
2016-May-17 21:34N 40°39' W 074°08'3 2.9
2016-May-17 20:33N 40°41' W 074°09'0 0.0
2016-May-17 19:33N 40°41' W 074°09'0 0.0
2016-May-17 18:20N 40°41' W 074°09'0 0.0
2016-May-17 17:17N 40°41' W 074°09'0 0.0
2016-May-17 15:33N 40°41' W 074°09'0 0.0
2016-May-17 14:31N 40°41' W 074°09'0 0.0
2016-May-17 11:30N 40°41' W 074°09'3 3.3
2016-May-17 10:33N 40°39' W 074°07'7 7.1
2016-May-17 09:34N 40°44' W 074°01'5 0.2
2016-May-16 11:03N 40°49' W 073°58'4 7.7
2016-May-16 10:34N 40°46' W 074°01'7 7.1
2016-May-16 09:33N 40°39' W 074°04'2 0.1
2016-May-15 13:32N 40°39' W 074°06'0 0.0
2016-May-15 12:29N 40°39' W 074°06'0 0.0
2016-May-15 08:33N 40°39' W 074°06'0 0.0
2016-May-15 07:33N 40°39' W 074°06'0 0.0
2016-May-15 06:33N 40°39' W 074°06'0 0.0
2016-May-15 05:33N 40°39' W 074°06'  
Track history (hours):
 
Tides and Currents Weather Stations Pressure Air Temp Water Temp Dewpoint Dewpoint Depression Visibility Wind Speed Wind Dir Waves Ship Positions

Quenames

Owner: BOSTON MARINE TRANSPORT INC, EAST BOSTON, MA. More information available from US FCC via Universal Licensing System and Coast Guard Vessel Documentation Center.

Last reported at 2016-May-25 04:34 UTC. Time now 2016-May-25 07:14 UTC.
Position N 41°38' W 071°18'.

Length 23 m; draft 3 m.

Type: Tug. MMSI: 367022790.

Date/timePositionNaut miles runAvg speedWind from/ knotsBaromVisibWave heightAir tempDewpointWater temp
2016-May-25 04:34N 41°38' W 071°18'8 7.6
2016-May-25 03:33N 41°45' W 071°22'3 1.8
2016-May-25 02:06N 41°48' W 071°23'0 0.0
2016-May-25 01:29N 41°48' W 071°23'0 0.0
2016-May-24 23:29N 41°48' W 071°23'0 0.0
2016-May-24 22:30N 41°48' W 071°23'0 0.0
2016-May-24 21:31N 41°48' W 071°23'0 0.0
2016-May-24 20:32N 41°48' W 071°23'0 0.0
2016-May-24 19:33N 41°48' W 071°23'0 0.0
2016-May-24 18:33N 41°48' W 071°23'0 0.0
2016-May-24 17:28N 41°48' W 071°23'0 0.0
2016-May-24 16:27N 41°48' W 071°23'2 2.7
2016-May-24 15:33N 41°45' W 071°23'6 6.3
2016-May-24 14:33N 41°40' W 071°19'7 6.8
2016-May-24 13:29N 41°33' W 071°20'3 3.0
2016-May-24 12:33N 41°30' W 071°21'40 5.7
2016-May-24 05:33N 41°14' W 072°09'6 6.2
2016-May-24 04:32N 41°11' W 072°17'5 5.2
2016-May-24 03:33N 41°09' W 072°23'5 4.8
2016-May-24 02:34N 41°07' W 072°29'6 5.3
2016-May-24 01:31N 41°05' W 072°35'64 6.3
2016-May-23 15:19N 40°46' W 073°57'4 5.2
2016-May-23 14:33N 40°42' W 073°59'4 3.7
2016-May-23 13:33N 40°40' W 074°03'1 1.5
2016-May-23 12:34N 40°39' W 074°04'4 3.9
2016-May-23 11:33N 40°39' W 074°09'0 0.0
2016-May-22 19:33N 40°39' W 074°09'2 1.9
2016-May-22 18:33N 40°39' W 074°07'0 0.0
2016-May-22 17:33N 40°39' W 074°07'0 0.0
2016-May-22 16:33N 40°39' W 074°07'0 0.0
2016-May-22 15:33N 40°39' W 074°07'0 0.0
2016-May-22 14:33N 40°39' W 074°07'0 0.0
2016-May-22 13:33N 40°39' W 074°07'0 0.0
2016-May-22 12:33N 40°39' W 074°07'0 0.0
2016-May-22 11:33N 40°39' W 074°07'0 0.0
2016-May-22 08:33N 40°39' W 074°07'0 0.0
2016-May-22 07:33N 40°39' W 074°07'1 0.7
2016-May-22 06:33N 40°39' W 074°07'3 3.0
2016-May-22 05:34N 40°41' W 074°09'0 0.0
2016-May-22 04:33N 40°41' W 074°09'0 0.0
2016-May-22 03:33N 40°41' W 074°09'0 0.0
2016-May-22 02:34N 40°41' W 074°09'3 2.7
2016-May-22 01:33N 40°39' W 074°11'2 0.2
2016-May-21 15:09N 40°37' W 074°12'4 6.0
2016-May-21 14:33N 40°39' W 074°08'6 6.2
2016-May-21 13:33N 40°41' W 074°01'6 5.9
2016-May-21 12:30N 40°46' W 073°57'72 6.6
2016-May-21 01:32N 41°08' W 072°25'10 9.9
2016-May-21 00:33N 41°12' W 072°14'4 0.1
2016-May-19 07:30N 41°14' W 072°08'8 8.5
2016-May-19 06:33N 41°11' W 072°18'9 8.9
2016-May-19 05:33N 41°07' W 072°29'8 8.0
2016-May-19 04:30N 41°05' W 072°40'7 7.1
2016-May-19 03:33N 41°03' W 072°48'54 5.9
2016-May-18 18:25N 40°46' W 073°56'3 3.3
2016-May-18 17:33N 40°44' W 073°58'3 2.6
2016-May-18 16:33N 40°42' W 074°00'3 2.8
2016-May-18 15:34N 40°40' W 074°03'3 3.2
2016-May-18 14:33N 40°39' W 074°07'0 0.3
2016-May-18 13:32N 40°39' W 074°07'0 0.0
2016-May-18 12:33N 40°39' W 074°07'0 0.0
2016-May-18 11:31N 40°39' W 074°07'0 0.0
2016-May-18 10:33N 40°39' W 074°07'0 0.0
2016-May-18 09:34N 40°39' W 074°07'0 0.0
2016-May-18 08:33N 40°39' W 074°07'0 0.0
2016-May-18 07:33N 40°39' W 074°07'0 0.0
2016-May-18 06:33N 40°39' W 074°07'0 0.0
2016-May-18 05:33N 40°39' W 074°07'0 0.0
2016-May-18 04:26N 40°39' W 074°07'0 0.0
2016-May-18 03:26N 40°39' W 074°07'0 0.0
2016-May-18 02:33N 40°39' W 074°07'0 0.0
2016-May-18 01:28N 40°39' W 074°07'0 0.0
2016-May-18 00:10N 40°39' W 074°07'0 0.1
2016-May-17 22:33N 40°39' W 074°07'1 0.8
2016-May-17 21:34N 40°39' W 074°08'3 2.9
2016-May-17 20:33N 40°41' W 074°09'0 0.0
2016-May-17 19:33N 40°41' W 074°09'0 0.0
2016-May-17 18:20N 40°41' W 074°09'0 0.0
2016-May-17 17:17N 40°41' W 074°09'0 0.0
2016-May-17 15:33N 40°41' W 074°09'0 0.0
2016-May-17 14:31N 40°41' W 074°09'0 0.0
2016-May-17 11:30N 40°41' W 074°09'3 3.3
2016-May-17 10:33N 40°39' W 074°07'7 7.1
2016-May-17 09:34N 40°44' W 074°01'5 0.2
2016-May-16 11:03N 40°49' W 073°58'4 7.7
2016-May-16 10:34N 40°46' W 074°01'7 7.1
2016-May-16 09:33N 40°39' W 074°04'2 0.1
2016-May-15 13:32N 40°39' W 074°06'0 0.0
2016-May-15 12:29N 40°39' W 074°06'0 0.0
2016-May-15 08:33N 40°39' W 074°06'0 0.0
2016-May-15 07:33N 40°39' W 074°06'0 0.0
2016-May-15 06:33N 40°39' W 074°06'0 0.0
2016-May-15 05:33N 40°39' W 074°06'  

Dump ship's entire track history